createdAt,value
2018-05-03T00:02:55.566Z,12.90
2018-05-03T00:05:24.800Z,13.10
2018-05-03T00:20:22.862Z,13.00
2018-05-03T00:45:19.448Z,12.80
2018-05-03T01:33:53.307Z,12.30
2018-05-03T03:44:22.133Z,12.00
2018-05-03T04:19:28.536Z,12.10
2018-05-03T04:24:46.015Z,12.10
2018-05-03T04:43:54.094Z,12.50
2018-05-03T05:08:50.791Z,12.70
2018-05-03T05:41:18.198Z,13.10
2018-05-03T06:57:21.499Z,19.50
2018-05-03T07:33:25.148Z,19.80
2018-05-03T07:50:53.013Z,19.10
2018-05-03T08:03:21.099Z,19.20
2018-05-03T08:49:13.644Z,32.30
2018-05-03T08:59:13.390Z,33.20
2018-05-03T09:16:40.153Z,34.60
2018-05-03T09:44:07.252Z,25.30
2018-05-03T10:01:34.449Z,23.40
2018-05-03T10:04:03.695Z,23.00
2018-05-03T10:56:26.982Z,23.70
2018-05-03T12:46:18.976Z,24.50
2018-05-03T12:51:18.796Z,24.30
2018-05-03T13:01:17.637Z,23.50
2018-05-03T13:04:14.976Z,23.30
2018-05-03T13:06:42.526Z,23.20
2018-05-03T13:09:10.063Z,23.10
2018-05-03T13:11:38.366Z,23.00
2018-05-03T13:14:05.898Z,23.00
2018-05-03T13:16:33.426Z,23.10
2018-05-03T13:19:01.482Z,23.20
2018-05-03T13:21:29.004Z,23.30
2018-05-03T13:23:56.538Z,23.50
2018-05-03T13:26:24.105Z,23.60
2018-05-03T13:28:51.643Z,23.60
2018-05-03T13:31:19.951Z,23.40
2018-05-03T13:33:47.977Z,23.40
2018-05-03T13:36:15.651Z,23.50
2018-05-03T13:38:43.198Z,23.60
2018-05-03T13:41:11.385Z,23.50
2018-05-03T13:43:39.775Z,23.00
2018-05-03T13:46:07.334Z,22.80
2018-05-03T13:48:35.692Z,22.60
2018-05-03T13:51:03.222Z,22.60
2018-05-03T13:53:30.759Z,22.50
2018-05-03T13:55:58.303Z,22.40
2018-05-03T13:58:25.860Z,22.30
2018-05-03T14:00:53.485Z,22.30
2018-05-03T14:03:21.021Z,22.20
2018-05-03T14:05:48.553Z,22.30
2018-05-03T14:08:17.483Z,22.20
2018-05-03T14:10:45.250Z,21.90
2018-05-03T14:13:13.739Z,21.70
2018-05-03T14:15:41.287Z,21.60
2018-05-03T14:18:08.831Z,21.40
2018-05-03T14:20:36.363Z,21.20
2018-05-03T14:23:03.921Z,21.10
2018-05-03T14:25:31.804Z,21.20
2018-05-03T14:27:59.339Z,21.30
2018-05-03T14:30:26.877Z,21.20
2018-05-03T14:32:55.254Z,21.10
2018-05-03T14:35:22.818Z,21.10
2018-05-03T14:37:50.347Z,21.30
2018-05-03T14:40:17.911Z,21.70
2018-05-03T14:42:45.437Z,22.00
2018-05-03T14:45:25.902Z,22.10
2018-05-03T15:01:26.643Z,21.40
2018-05-03T15:03:54.171Z,21.20
2018-05-03T15:06:21.720Z,21.10
2018-05-03T15:08:49.269Z,20.90
2018-05-03T15:11:17.535Z,20.60
2018-05-03T15:13:45.071Z,20.50
2018-05-03T15:16:14.455Z,20.30
2018-05-03T15:18:41.928Z,20.20
2018-05-03T15:21:10.225Z,20.40
2018-05-03T15:23:37.797Z,20.40
2018-05-03T15:26:05.324Z,20.20
2018-05-03T15:28:33.622Z,20.10
2018-05-03T15:31:01.178Z,20.00
2018-05-03T15:33:28.726Z,20.10
2018-05-03T15:35:57.030Z,20.00
2018-05-03T15:38:24.623Z,19.90
2018-05-03T15:40:52.198Z,19.90
2018-05-03T15:43:19.723Z,19.90
2018-05-03T15:45:48.525Z,20.00
2018-05-03T15:48:16.537Z,19.80
2018-05-03T15:50:44.051Z,19.60
2018-05-03T15:53:11.642Z,19.60
2018-05-03T15:55:39.192Z,19.50
2018-05-03T15:58:06.737Z,19.30
2018-05-03T16:00:34.326Z,19.10
2018-05-03T16:03:03.061Z,19.00
2018-05-03T16:05:30.588Z,19.00
2018-05-03T16:07:58.199Z,19.00
2018-05-03T16:10:25.792Z,19.00
2018-05-03T16:12:54.120Z,18.90
2018-05-03T16:15:22.652Z,18.90
2018-05-03T16:17:50.194Z,18.90
2018-05-03T16:20:17.752Z,18.90
2018-05-03T16:22:45.403Z,18.80
2018-05-03T16:25:13.859Z,18.80
2018-05-03T16:27:41.423Z,18.90
2018-05-03T16:30:09.027Z,18.80
2018-05-03T16:32:36.564Z,18.80
2018-05-03T16:35:04.094Z,18.80
2018-05-03T16:37:31.674Z,18.70
2018-05-03T16:39:59.192Z,18.70
2018-05-03T16:42:26.759Z,18.70
2018-05-03T16:44:54.324Z,18.70
2018-05-03T16:47:22.103Z,18.60
2018-05-03T16:49:49.670Z,18.70
2018-05-03T16:52:17.913Z,18.70
2018-05-03T16:54:45.368Z,18.60
2018-05-03T16:57:15.391Z,18.50
2018-05-03T16:59:42.975Z,18.50
2018-05-03T17:02:10.500Z,18.50
2018-05-03T17:04:38.059Z,18.40
2018-05-03T17:07:05.648Z,18.30
2018-05-03T17:09:33.956Z,18.10
2018-05-03T17:12:02.248Z,18.00
2018-05-03T17:14:30.267Z,18.00
2018-05-03T17:16:57.790Z,17.90
2018-05-03T17:19:25.347Z,17.90
2018-05-03T17:21:52.918Z,17.90
2018-05-03T17:24:20.447Z,17.80
2018-05-03T17:26:48.730Z,17.80
2018-05-03T17:29:16.999Z,17.70
2018-05-03T17:31:44.526Z,17.80
2018-05-03T17:34:12.044Z,17.70
2018-05-03T17:36:40.426Z,17.70
2018-05-03T17:39:08.243Z,17.50
2018-05-03T17:41:35.747Z,17.40
2018-05-03T17:44:03.326Z,17.40
2018-05-03T17:46:30.851Z,17.30
2018-05-03T17:48:58.735Z,17.30
2018-05-03T17:51:26.313Z,17.30
2018-05-03T17:53:53.843Z,17.30
2018-05-03T17:56:21.372Z,17.30
2018-05-03T17:58:50.079Z,17.10
2018-05-03T18:01:17.962Z,17.10
2018-05-03T18:03:45.624Z,17.10
2018-05-03T18:06:24.462Z,17.00
2018-05-03T18:18:27.622Z,17.00
2018-05-03T18:20:55.224Z,16.70
2018-05-03T18:23:23.686Z,16.70
2018-05-03T18:25:51.249Z,16.80
2018-05-03T18:28:19.580Z,16.90
2018-05-03T18:30:47.115Z,16.90
2018-05-03T18:33:16.355Z,17.10
2018-05-03T18:35:43.878Z,17.10
2018-05-03T18:38:11.452Z,17.10
2018-05-03T18:40:39.267Z,17.10
2018-05-03T18:43:07.592Z,17.10
2018-05-03T18:45:35.123Z,17.10
2018-05-03T18:48:02.669Z,17.00
2018-05-03T18:50:31.811Z,17.00
2018-05-03T18:52:59.457Z,17.00
2018-05-03T18:55:29.524Z,17.10
2018-05-03T18:57:57.050Z,17.10
2018-05-03T19:00:24.576Z,17.10
2018-05-03T19:02:52.175Z,17.10
2018-05-03T19:05:19.867Z,17.20
2018-05-03T19:07:47.461Z,17.10
2018-05-03T19:10:17.326Z,17.10
2018-05-03T19:12:44.827Z,17.10
2018-05-03T19:15:14.069Z,17.10
2018-05-03T19:17:41.618Z,17.10
2018-05-03T19:20:10.823Z,17.00
2018-05-03T19:22:38.531Z,17.00
2018-05-03T19:25:06.477Z,17.00
2018-05-03T19:27:34.818Z,16.90
2018-05-03T19:30:02.582Z,16.90
2018-05-03T19:32:30.203Z,17.00
2018-05-03T19:34:58.567Z,16.90
2018-05-03T19:37:26.428Z,16.90
2018-05-03T19:39:53.996Z,16.90
2018-05-03T19:42:21.519Z,16.90
2018-05-03T19:44:49.599Z,16.80
2018-05-03T19:47:18.220Z,16.80
2018-05-03T19:49:46.661Z,16.80
2018-05-03T19:52:17.265Z,16.70
2018-05-03T19:54:44.843Z,16.70
2018-05-03T19:57:12.439Z,16.60
2018-05-03T19:59:39.957Z,16.60
2018-05-03T20:02:07.594Z,16.50
2018-05-03T20:04:35.137Z,16.50
2018-05-03T20:07:02.674Z,16.50
2018-05-03T20:09:31.028Z,16.40
2018-05-03T20:11:58.551Z,16.40
2018-05-03T20:14:26.214Z,16.40
2018-05-03T20:16:53.779Z,16.40
2018-05-03T20:19:21.318Z,16.40
2018-05-03T20:21:48.843Z,16.40
2018-05-03T20:24:16.660Z,16.40
2018-05-03T20:26:45.041Z,16.40
2018-05-03T20:29:15.114Z,16.20
2018-05-03T20:31:42.783Z,16.20
2018-05-03T20:34:11.111Z,16.30
2018-05-03T20:36:38.655Z,16.20
2018-05-03T20:39:06.239Z,16.20
2018-05-03T20:41:33.764Z,16.20
2018-05-03T20:44:01.291Z,16.20
2018-05-03T20:46:29.655Z,16.10
2018-05-03T20:48:57.284Z,16.10
2018-05-03T20:51:24.807Z,16.20
2018-05-03T20:53:53.771Z,16.10
2018-05-03T20:56:21.319Z,16.00
2018-05-03T20:58:49.025Z,16.00
2018-05-03T21:01:17.951Z,16.00
2018-05-03T21:03:45.480Z,15.90
2018-05-03T21:06:24.551Z,15.90
2018-05-03T21:22:03.630Z,15.60
2018-05-03T21:24:31.139Z,15.50
2018-05-03T21:26:59.446Z,15.20
2018-05-03T21:29:27.716Z,15.20
2018-05-03T21:31:55.260Z,15.20
2018-05-03T21:34:22.812Z,15.20
2018-05-03T21:36:51.166Z,15.30
2018-05-03T21:39:18.708Z,15.30
2018-05-03T21:41:46.265Z,15.30
2018-05-03T21:44:25.971Z,15.10
2018-05-03T21:50:05.642Z,15.00
2018-05-03T21:52:33.162Z,15.00
2018-05-03T21:55:01.954Z,15.00
2018-05-03T21:57:29.503Z,14.90
2018-05-03T21:59:57.343Z,14.90
2018-05-03T22:02:24.893Z,14.90
2018-05-03T22:04:52.929Z,14.90
2018-05-03T22:07:20.459Z,15.00
2018-05-03T22:09:47.986Z,15.00
2018-05-03T22:12:16.556Z,14.90
2018-05-03T22:14:44.075Z,14.90
2018-05-03T22:17:12.358Z,14.80
2018-05-03T22:19:40.689Z,14.70
2018-05-03T22:22:08.247Z,14.70
2018-05-03T22:24:35.770Z,14.70
2018-05-03T22:27:03.565Z,14.70
2018-05-03T22:29:31.848Z,14.70
2018-05-03T22:31:59.386Z,14.70
2018-05-03T22:34:26.944Z,14.80
2018-05-03T22:36:54.506Z,14.70
2018-05-03T22:39:22.028Z,14.70
2018-05-03T22:41:50.362Z,14.70
2018-05-03T22:44:17.884Z,14.70
2018-05-03T22:46:45.415Z,14.70
2018-05-03T22:49:24.187Z,14.70
2018-05-03T23:01:18.327Z,14.60
2018-05-03T23:03:45.845Z,14.50
2018-05-03T23:06:25.627Z,14.50
2018-05-03T23:11:22.579Z,14.60
2018-05-03T23:13:50.235Z,14.50
2018-05-03T23:16:17.798Z,14.50
2018-05-03T23:18:45.375Z,14.40
2018-05-03T23:21:13.707Z,14.40
2018-05-03T23:23:42.501Z,14.40
2018-05-03T23:26:10.403Z,14.40
2018-05-03T23:28:38.291Z,14.40
2018-05-03T23:31:05.832Z,14.40
2018-05-03T23:33:33.374Z,14.40
2018-05-03T23:36:00.932Z,14.40
2018-05-03T23:38:28.455Z,14.40
2018-05-03T23:40:55.972Z,14.40
2018-05-03T23:43:23.522Z,14.50
2018-05-03T23:45:51.076Z,14.50
2018-05-03T23:48:18.608Z,14.40
2018-05-03T23:50:46.499Z,14.40
2018-05-03T23:53:24.483Z,14.30
2018-05-03T23:58:27.352Z,14.20
